createdAt,value
2022-08-07T00:00:51.333Z,0.30
2022-08-07T00:03:17.972Z,0.47
2022-08-07T00:05:45.292Z,0.40
2022-08-07T00:08:12.900Z,0.52
2022-08-07T00:10:47.880Z,0.30
2022-08-07T00:13:26.788Z,0.40
2022-08-07T00:15:55.251Z,0.47
2022-08-07T00:18:26.169Z,0.43
2022-08-07T00:20:56.779Z,0.50
2022-08-07T00:23:24.401Z,0.52
2022-08-07T00:26:00.237Z,0.43
2022-08-07T00:28:33.572Z,0.47
2022-08-07T00:31:12.799Z,0.50
2022-08-07T00:33:43.337Z,0.30
2022-08-07T00:36:14.107Z,0.60
2022-08-07T00:38:40.868Z,0.32
2022-08-07T00:41:09.952Z,0.30
2022-08-07T00:44:01.308Z,0.50
2022-08-07T00:46:27.701Z,0.75
2022-08-07T00:48:54.377Z,0.40
2022-08-07T00:51:21.551Z,0.30
2022-08-07T00:53:50.670Z,0.30
2022-08-07T00:56:23.355Z,0.53
2022-08-07T00:58:57.399Z,0.30
2022-08-07T01:01:24.228Z,0.40
2022-08-07T01:03:55.980Z,0.30
2022-08-07T01:06:27.243Z,0.50
2022-08-07T01:08:56.318Z,0.40
2022-08-07T01:12:09.882Z,0.40
2022-08-07T01:14:12.401Z,0.50
2022-08-07T01:16:43.034Z,0.43
2022-08-07T01:19:14.912Z,0.80
2022-08-07T01:21:48.096Z,0.30
2022-08-07T01:24:21.236Z,0.35
2022-08-07T01:26:51.594Z,0.43
2022-08-07T01:29:18.307Z,0.50
2022-08-07T01:31:48.226Z,0.30
2022-08-07T01:34:17.793Z,0.40
2022-08-07T01:36:52.888Z,0.30
2022-08-07T01:39:39.628Z,0.47
2022-08-07T01:42:38.917Z,0.40
2022-08-07T01:45:05.392Z,0.40
2022-08-07T01:48:18.926Z,0.60
2022-08-07T01:50:30.570Z,0.47
2022-08-07T01:53:00.105Z,0.50
2022-08-07T01:55:30.812Z,0.45
2022-08-07T01:58:27.470Z,0.40
2022-08-07T02:01:10.252Z,0.50
2022-08-07T02:03:50.299Z,0.50
2022-08-07T02:06:31.968Z,0.47
2022-08-07T02:09:03.765Z,0.40
2022-08-07T02:12:03.460Z,0.40
2022-08-07T02:14:40.166Z,0.40
2022-08-07T02:17:09.888Z,0.60
2022-08-07T02:20:04.937Z,0.50
2022-08-07T02:22:30.729Z,0.40
2022-08-07T02:24:58.690Z,0.40
2022-08-07T02:27:34.354Z,0.30
2022-08-07T02:30:03.626Z,0.30
2022-08-07T02:32:39.452Z,0.50
2022-08-07T02:35:11.017Z,0.50
2022-08-07T02:37:44.010Z,0.30
2022-08-07T02:40:30.977Z,0.53
2022-08-07T02:42:59.164Z,0.50
2022-08-07T02:45:58.029Z,0.40
2022-08-07T02:48:15.460Z,0.32
2022-08-07T02:50:44.531Z,0.40
2022-08-07T02:53:15.349Z,0.60
2022-08-07T02:56:02.540Z,0.40
2022-08-07T02:58:33.896Z,0.45
2022-08-07T03:01:03.047Z,0.52
2022-08-07T03:03:49.117Z,0.50
2022-08-07T03:06:25.516Z,0.53
2022-08-07T03:08:53.176Z,0.60
2022-08-07T03:11:21.092Z,0.57
2022-08-07T03:14:01.439Z,0.40
2022-08-07T03:16:30.388Z,0.40
2022-08-07T03:18:59.155Z,0.60
2022-08-07T03:21:26.816Z,0.60
2022-08-07T03:24:19.469Z,0.65
2022-08-07T03:26:57.889Z,0.70
2022-08-07T03:29:33.947Z,0.40
2022-08-07T03:32:07.312Z,0.27
2022-08-07T03:34:47.387Z,0.80
2022-08-07T03:37:32.857Z,0.68
2022-08-07T03:40:16.677Z,0.52
2022-08-07T03:42:44.429Z,0.68
2022-08-07T03:45:11.919Z,0.43
2022-08-07T03:47:48.115Z,0.52
2022-08-07T03:50:23.195Z,0.50
2022-08-07T03:52:51.986Z,0.57
2022-08-07T03:55:18.691Z,0.55
2022-08-07T03:58:34.396Z,0.70
2022-08-07T04:00:36.396Z,0.50
2022-08-07T04:03:04.978Z,0.50
2022-08-07T04:05:40.914Z,0.57
2022-08-07T04:08:16.135Z,0.50
2022-08-07T04:10:54.260Z,0.60
2022-08-07T04:14:11.008Z,0.70
2022-08-07T04:16:31.499Z,0.45
2022-08-07T04:19:01.406Z,0.40
2022-08-07T04:21:33.339Z,1.00
2022-08-07T04:24:05.960Z,0.53
2022-08-07T04:26:34.655Z,0.65
2022-08-07T04:29:03.161Z,0.50
2022-08-07T04:31:38.510Z,0.50
2022-08-07T04:34:27.399Z,0.50
2022-08-07T04:37:00.519Z,0.47
2022-08-07T04:39:35.461Z,0.57
2022-08-07T04:42:03.859Z,0.55
2022-08-07T04:44:30.433Z,0.70
2022-08-07T04:47:09.781Z,0.60
2022-08-07T04:49:57.871Z,0.73
2022-08-07T04:52:51.246Z,0.65
2022-08-07T04:58:12.541Z,1.08
2022-08-07T04:58:49.724Z,0.82
2022-08-07T05:01:47.534Z,0.80
2022-08-07T05:04:44.023Z,1.00
2022-08-07T05:07:36.833Z,0.80
2022-08-07T05:10:24.589Z,0.55
2022-08-07T05:13:10.122Z,0.70
2022-08-07T05:15:53.563Z,0.60
2022-08-07T05:18:25.672Z,0.90
2022-08-07T05:20:57.026Z,1.38
2022-08-07T05:23:35.509Z,0.82
2022-08-07T05:26:13.822Z,0.82
2022-08-07T05:28:50.212Z,0.60
2022-08-07T05:31:20.155Z,0.80
2022-08-07T05:34:00.940Z,0.90
2022-08-07T05:36:35.769Z,0.93
2022-08-07T05:40:03.754Z,0.75
2022-08-07T05:42:00.717Z,0.93
2022-08-07T05:44:30.990Z,1.15
2022-08-07T05:47:00.297Z,1.00
2022-08-07T05:49:40.861Z,1.30
2022-08-07T05:52:08.477Z,0.90
2022-08-07T05:54:53.147Z,1.20
2022-08-07T05:57:26.777Z,1.05
2022-08-07T05:59:58.924Z,1.10
2022-08-07T06:02:29.592Z,0.98
2022-08-07T06:05:03.424Z,1.10
2022-08-07T06:08:14.537Z,1.27
2022-08-07T06:10:18.797Z,1.58
2022-08-07T06:12:47.275Z,1.60
2022-08-07T06:15:16.585Z,1.38
2022-08-07T06:17:53.480Z,1.40
2022-08-07T06:20:49.976Z,1.63
2022-08-07T06:23:46.034Z,1.80
2022-08-07T06:25:59.856Z,1.87
2022-08-07T06:28:28.455Z,2.38
2022-08-07T06:30:58.266Z,2.30
2022-08-07T06:33:25.726Z,2.55
2022-08-07T06:36:12.138Z,2.40
2022-08-07T06:38:38.979Z,2.50
2022-08-07T06:42:00.640Z,2.55
2022-08-07T06:44:31.087Z,2.70
2022-08-07T06:47:10.134Z,2.50
2022-08-07T06:49:51.721Z,2.40
2022-08-07T06:52:31.615Z,2.87
2022-08-07T06:55:31.288Z,2.75
2022-08-07T06:58:00.749Z,2.70
2022-08-07T07:00:31.015Z,2.40
2022-08-07T07:03:01.201Z,2.50
2022-08-07T07:06:03.579Z,2.63
2022-08-07T07:08:27.035Z,2.75
2022-08-07T07:10:56.446Z,2.05
2022-08-07T07:13:56.709Z,2.20
2022-08-07T07:16:30.879Z,2.38
2022-08-07T07:19:54.439Z,2.40
2022-08-07T07:22:11.727Z,2.05
2022-08-07T07:24:42.848Z,2.00
2022-08-07T07:27:11.586Z,2.03
2022-08-07T07:29:56.880Z,2.00
2022-08-07T07:32:32.056Z,1.80
2022-08-07T07:35:04.022Z,2.03
2022-08-07T07:37:45.216Z,2.05
2022-08-07T07:40:19.523Z,1.90
2022-08-07T07:42:54.250Z,1.55
2022-08-07T07:46:37.827Z,1.30
2022-08-07T07:48:24.140Z,1.83
2022-08-07T07:51:08.064Z,1.52
2022-08-07T07:53:44.744Z,1.55
2022-08-07T07:56:19.593Z,1.25
2022-08-07T07:59:08.133Z,1.00
2022-08-07T08:02:04.061Z,1.20
2022-08-07T08:04:29.107Z,1.48
2022-08-07T08:07:00.757Z,1.58
2022-08-07T08:09:33.251Z,1.58
2022-08-07T08:12:43.189Z,1.80
2022-08-07T08:15:06.988Z,1.40
2022-08-07T08:17:57.501Z,1.50
2022-08-07T08:20:27.323Z,1.83
2022-08-07T08:23:18.534Z,2.08
2022-08-07T08:26:07.916Z,1.40
2022-08-07T08:28:43.443Z,1.70
2022-08-07T08:31:22.820Z,1.90
2022-08-07T08:33:59.153Z,1.60
2022-08-07T08:36:30.484Z,1.60
2022-08-07T08:39:02.128Z,1.90
2022-08-07T08:41:58.376Z,1.63
2022-08-07T08:44:46.901Z,1.73
2022-08-07T08:47:31.706Z,1.80
2022-08-07T08:50:42.253Z,2.08
2022-08-07T08:53:26.323Z,1.70
2022-08-07T08:56:31.358Z,1.60
2022-08-07T08:59:20.077Z,1.60
2022-08-07T09:02:00.445Z,2.00
2022-08-07T09:04:51.883Z,2.13
2022-08-07T09:07:34.016Z,1.70
2022-08-07T09:10:36.080Z,1.90
2022-08-07T09:13:14.861Z,1.50
2022-08-07T09:16:22.202Z,1.80
2022-08-07T09:18:58.868Z,1.90
2022-08-07T09:21:34.000Z,2.07
2022-08-07T09:24:56.089Z,1.98
2022-08-07T09:28:00.758Z,2.20
2022-08-07T09:31:19.657Z,1.77
2022-08-07T09:34:06.726Z,1.80
2022-08-07T09:37:06.407Z,1.60
2022-08-07T09:40:10.555Z,2.15
2022-08-07T09:42:52.779Z,2.25
2022-08-07T09:47:50.580Z,2.42
2022-08-07T09:49:59.796Z,1.75
2022-08-07T09:52:16.788Z,2.30
2022-08-07T09:54:52.745Z,1.73
2022-08-07T09:57:46.511Z,2.30
2022-08-07T10:00:16.151Z,2.22
2022-08-07T10:04:06.049Z,1.70
2022-08-07T10:06:27.363Z,1.90
2022-08-07T10:09:07.105Z,1.80
2022-08-07T10:12:00.345Z,1.50
2022-08-07T10:15:07.778Z,1.70
2022-08-07T10:18:16.623Z,2.10
2022-08-07T10:21:19.966Z,1.43
2022-08-07T10:24:23.601Z,1.60
2022-08-07T10:27:20.151Z,2.00
2022-08-07T10:29:58.646Z,1.98
2022-08-07T10:32:59.667Z,1.73
2022-08-07T10:35:56.562Z,1.93
2022-08-07T10:38:35.963Z,1.40
2022-08-07T10:41:52.224Z,1.60
2022-08-07T10:44:52.389Z,1.40
2022-08-07T10:48:12.506Z,1.52
2022-08-07T10:50:50.685Z,1.70
2022-08-07T10:53:44.793Z,1.40
2022-08-07T10:56:20.696Z,1.33
2022-08-07T10:59:22.027Z,1.45
2022-08-07T11:02:04.700Z,1.38
2022-08-07T11:04:52.376Z,1.50
2022-08-07T11:07:59.182Z,1.30
2022-08-07T11:10:34.762Z,1.50
2022-08-07T11:14:45.194Z,1.58
2022-08-07T11:16:41.026Z,1.70
2022-08-07T11:19:27.315Z,1.30
2022-08-07T11:22:26.354Z,1.75
2022-08-07T11:25:11.562Z,1.30
2022-08-07T11:28:04.404Z,1.48
2022-08-07T11:30:42.228Z,1.38
2022-08-07T11:33:59.140Z,1.50
2022-08-07T11:36:35.842Z,1.20
2022-08-07T11:39:59.211Z,1.20
2022-08-07T11:42:40.950Z,1.10
2022-08-07T11:45:55.774Z,1.42
2022-08-07T11:49:04.405Z,1.13
2022-08-07T11:51:46.939Z,1.00
2022-08-07T11:54:54.793Z,1.00
2022-08-07T11:58:00.614Z,1.05
2022-08-07T12:01:20.197Z,0.88
2022-08-07T12:04:17.558Z,1.17
2022-08-07T12:06:51.468Z,1.00
2022-08-07T12:09:34.583Z,1.10
2022-08-07T12:12:09.669Z,1.10
2022-08-07T12:14:56.379Z,1.17
2022-08-07T12:17:39.613Z,1.10
2022-08-07T12:20:30.324Z,1.02
2022-08-07T12:23:09.106Z,1.10
2022-08-07T12:26:21.597Z,0.88
2022-08-07T12:29:03.703Z,0.90
2022-08-07T12:32:04.763Z,0.90
2022-08-07T12:34:36.910Z,1.00
2022-08-07T12:37:27.949Z,0.80
2022-08-07T12:39:57.866Z,1.10
2022-08-07T12:42:28.553Z,1.27
2022-08-07T12:45:04.492Z,1.30
2022-08-07T12:47:45.545Z,1.25
2022-08-07T12:50:39.081Z,1.20
2022-08-07T12:54:02.686Z,1.00
2022-08-07T12:56:23.955Z,1.30
2022-08-07T12:58:58.019Z,1.00
2022-08-07T13:01:32.265Z,1.40
2022-08-07T13:04:05.553Z,1.20
2022-08-07T13:07:00.775Z,1.27
2022-08-07T13:10:19.633Z,0.98
2022-08-07T13:12:41.701Z,1.20
2022-08-07T13:15:39.770Z,1.10
2022-08-07T13:18:26.399Z,1.05
2022-08-07T13:21:02.765Z,1.02
2022-08-07T13:24:02.186Z,1.30
2022-08-07T13:26:34.522Z,1.20
2022-08-07T13:29:12.454Z,1.10
2022-08-07T13:31:57.936Z,1.02
2022-08-07T13:34:35.945Z,1.23
2022-08-07T13:37:38.289Z,1.20
2022-08-07T13:40:34.846Z,0.90
2022-08-07T13:43:13.376Z,1.42
2022-08-07T13:46:10.766Z,1.10
2022-08-07T13:48:34.448Z,0.80
2022-08-07T13:51:27.123Z,1.02
2022-08-07T13:54:00.526Z,1.23
2022-08-07T13:56:35.548Z,1.20
2022-08-07T13:59:20.372Z,1.20
2022-08-07T14:02:03.485Z,1.05
2022-08-07T14:04:36.118Z,1.40
2022-08-07T14:07:09.734Z,0.90
2022-08-07T14:10:02.988Z,1.00
2022-08-07T14:12:36.134Z,1.30
2022-08-07T14:15:22.389Z,0.90
2022-08-07T14:18:15.712Z,1.27
2022-08-07T14:20:49.281Z,1.17
2022-08-07T14:23:58.586Z,0.77
2022-08-07T14:26:30.584Z,1.00
2022-08-07T14:32:00.078Z,1.00
2022-08-07T14:34:30.228Z,1.10
2022-08-07T14:37:02.034Z,0.95
2022-08-07T14:40:17.599Z,0.70
2022-08-07T14:42:31.354Z,0.82
2022-08-07T14:45:21.934Z,0.70
2022-08-07T14:47:49.354Z,0.73
2022-08-07T14:50:20.457Z,0.55
2022-08-07T14:52:50.394Z,0.63
2022-08-07T14:55:18.420Z,0.80
2022-08-07T14:57:58.287Z,0.70
2022-08-07T15:00:31.393Z,0.40
2022-08-07T15:03:19.339Z,0.50
2022-08-07T15:08:49.718Z,0.63
2022-08-07T15:11:51.098Z,0.65
2022-08-07T15:14:15.294Z,0.87
2022-08-07T15:16:55.094Z,0.90
2022-08-07T15:20:30.567Z,0.65
2022-08-07T15:22:23.067Z,0.80
2022-08-07T15:33:42.600Z,0.70
2022-08-07T15:36:10.909Z,0.80
2022-08-07T15:38:51.878Z,0.98
2022-08-07T15:42:44.358Z,0.87
2022-08-07T15:44:21.011Z,0.70
2022-08-07T15:46:58.674Z,0.80
2022-08-07T15:50:05.399Z,0.70
2022-08-07T15:52:30.577Z,0.90
2022-08-07T15:55:02.663Z,0.90
2022-08-07T15:57:39.595Z,1.02
2022-08-07T16:00:31.195Z,1.00
2022-08-07T16:03:04.628Z,1.00
2022-08-07T16:05:31.715Z,1.08
2022-08-07T16:08:31.706Z,0.93
2022-08-07T16:10:59.772Z,0.80
2022-08-07T16:13:58.524Z,1.30
2022-08-07T16:16:47.603Z,1.10
2022-08-07T16:19:59.238Z,2.55
2022-08-07T16:22:33.626Z,0.90
2022-08-07T16:25:22.991Z,0.90
2022-08-07T16:30:08.573Z,0.90
2022-08-07T16:31:51.816Z,0.90
2022-08-07T16:34:10.517Z,0.98
2022-08-07T16:38:04.571Z,1.03
2022-08-07T16:40:28.868Z,1.10
2022-08-07T16:43:18.855Z,1.17
2022-08-07T16:47:04.672Z,0.90
2022-08-07T16:50:27.790Z,1.15
2022-08-07T16:52:51.908Z,0.83
2022-08-07T16:55:13.037Z,0.80
2022-08-07T16:58:04.127Z,1.08
2022-08-07T17:00:41.088Z,1.08
2022-08-07T17:03:17.724Z,0.85
2022-08-07T17:06:31.499Z,0.93
2022-08-07T17:09:15.786Z,0.80
2022-08-07T17:12:34.235Z,1.00
2022-08-07T17:15:15.742Z,1.10
2022-08-07T17:17:48.470Z,1.15
2022-08-07T17:20:41.708Z,1.10
2022-08-07T17:23:32.389Z,1.00
2022-08-07T17:26:30.014Z,1.08
2022-08-07T17:28:57.783Z,1.00
2022-08-07T17:32:28.312Z,0.80
2022-08-07T17:35:50.579Z,1.07
2022-08-07T17:38:08.202Z,1.20
2022-08-07T17:40:56.456Z,0.80
2022-08-07T17:44:00.976Z,1.10
2022-08-07T17:46:34.505Z,1.08
2022-08-07T17:49:14.098Z,1.00
2022-08-07T17:52:30.590Z,1.15
2022-08-07T17:55:54.941Z,1.05
2022-08-07T17:58:30.834Z,0.80
2022-08-07T18:01:02.704Z,1.10
2022-08-07T18:04:07.048Z,0.80
2022-08-07T18:07:20.521Z,0.85
2022-08-07T18:10:06.824Z,1.00
2022-08-07T18:13:10.947Z,0.80
2022-08-07T18:16:31.200Z,1.30
2022-08-07T18:21:10.313Z,1.20
2022-08-07T18:22:15.093Z,1.20
2022-08-07T18:24:53.182Z,1.13
2022-08-07T18:27:44.791Z,1.33
2022-08-07T18:30:30.746Z,1.05
2022-08-07T18:33:27.742Z,1.00
2022-08-07T18:36:33.578Z,1.15
2022-08-07T18:40:08.709Z,0.85
2022-08-07T18:42:16.337Z,1.30
2022-08-07T18:45:43.560Z,1.10
2022-08-07T18:50:05.356Z,1.17
2022-08-07T18:52:37.946Z,1.45
2022-08-07T18:54:27.671Z,1.08
2022-08-07T18:57:29.300Z,1.30
2022-08-07T19:00:32.612Z,1.02
2022-08-07T19:03:16.138Z,1.20
2022-08-07T19:06:09.366Z,1.20
2022-08-07T19:08:56.199Z,1.15
2022-08-07T19:12:04.922Z,1.20
2022-08-07T19:14:53.741Z,1.20
2022-08-07T19:17:55.857Z,1.43
2022-08-07T19:20:29.032Z,1.40
2022-08-07T19:23:21.380Z,1.27
2022-08-07T19:26:25.067Z,1.17
2022-08-07T19:30:58.884Z,1.20
2022-08-07T19:32:10.855Z,1.63
2022-08-07T19:34:41.867Z,1.60
2022-08-07T19:37:17.390Z,1.45
2022-08-07T19:40:01.632Z,1.08
2022-08-07T19:42:31.480Z,1.17
2022-08-07T19:45:08.234Z,1.70
2022-08-07T19:47:38.586Z,1.63
2022-08-07T19:50:44.467Z,1.40
2022-08-07T19:52:58.675Z,1.50
2022-08-07T19:55:57.016Z,1.77
2022-08-07T19:58:16.150Z,1.60
2022-08-07T20:00:53.056Z,1.17
2022-08-07T20:03:34.467Z,1.25
2022-08-07T20:06:04.954Z,1.45
2022-08-07T20:08:37.586Z,1.20
2022-08-07T20:11:15.223Z,1.20
2022-08-07T20:14:03.024Z,1.63
2022-08-07T20:16:36.859Z,1.60
2022-08-07T20:19:10.650Z,1.52
2022-08-07T20:21:42.273Z,1.70
2022-08-07T20:24:21.928Z,1.60
2022-08-07T20:26:52.087Z,1.38
2022-08-07T20:29:49.268Z,1.50
2022-08-07T20:32:25.598Z,1.73
2022-08-07T20:34:56.050Z,1.45
2022-08-07T20:37:34.012Z,1.70
2022-08-07T20:40:06.066Z,1.45
2022-08-07T20:42:57.905Z,1.52
2022-08-07T20:45:33.129Z,1.20
2022-08-07T20:48:28.372Z,1.50
2022-08-07T20:51:00.021Z,1.47
2022-08-07T20:54:04.068Z,1.42
2022-08-07T20:56:16.420Z,1.65
2022-08-07T20:58:48.092Z,1.50
2022-08-07T21:01:19.907Z,1.48
2022-08-07T21:04:18.707Z,1.17
2022-08-07T21:06:46.595Z,1.45
2022-08-07T21:09:24.617Z,1.75
2022-08-07T21:11:57.533Z,2.47
2022-08-07T21:14:32.611Z,2.58
2022-08-07T21:18:01.073Z,2.10
2022-08-07T21:20:04.510Z,1.85
2022-08-07T21:22:51.132Z,1.48
2022-08-07T21:25:19.604Z,1.42
2022-08-07T21:28:10.638Z,1.50
2022-08-07T21:30:46.870Z,1.42
2022-08-07T21:33:41.793Z,1.60
2022-08-07T21:36:31.391Z,2.40
2022-08-07T21:39:45.292Z,1.40
2022-08-07T21:42:42.495Z,1.77
2022-08-07T21:46:07.528Z,1.60
2022-08-07T21:48:28.452Z,1.80
2022-08-07T21:51:20.057Z,1.70
2022-08-07T21:53:54.006Z,1.67
2022-08-07T21:56:49.334Z,1.67
2022-08-07T22:00:02.709Z,1.60
2022-08-07T22:02:27.167Z,1.42
2022-08-07T22:04:55.428Z,1.73
2022-08-07T22:07:31.729Z,1.95
2022-08-07T22:10:20.062Z,1.88
2022-08-07T22:12:57.111Z,1.50
2022-08-07T22:16:38.800Z,1.98
2022-08-07T22:18:32.880Z,1.40
2022-08-07T22:21:11.618Z,1.52
2022-08-07T22:23:47.185Z,1.45
2022-08-07T22:26:21.772Z,2.10
2022-08-07T22:29:08.742Z,2.13
2022-08-07T22:32:05.523Z,1.63
2022-08-07T22:34:49.761Z,1.52
2022-08-07T22:38:03.091Z,1.60
2022-08-07T22:40:59.963Z,1.92
2022-08-07T22:43:33.999Z,1.90
2022-08-07T22:46:42.871Z,1.83
2022-08-07T22:49:39.632Z,1.58
2022-08-07T22:52:39.985Z,1.65
2022-08-07T22:55:41.520Z,1.50
2022-08-07T22:58:19.869Z,1.60
2022-08-07T23:01:09.270Z,1.70
2022-08-07T23:04:12.110Z,1.95
2022-08-07T23:07:39.714Z,1.77
2022-08-07T23:10:42.095Z,1.60
2022-08-07T23:13:29.104Z,1.90
2022-08-07T23:16:46.723Z,1.70
2022-08-07T23:20:09.559Z,1.80
2022-08-07T23:22:55.577Z,1.67
2022-08-07T23:25:52.801Z,2.15
2022-08-07T23:28:28.581Z,1.80
2022-08-07T23:31:13.844Z,1.80
2022-08-07T23:34:35.915Z,1.67
2022-08-07T23:37:22.591Z,2.10
2022-08-07T23:40:12.920Z,1.80
2022-08-07T23:42:54.721Z,1.83
2022-08-07T23:45:33.157Z,2.22
2022-08-07T23:48:28.684Z,2.08
2022-08-07T23:53:01.140Z,2.13
2022-08-07T23:54:44.040Z,1.83
2022-08-07T23:57:30.948Z,2.00
